sensor_id;sensor_type;location;lat;lon;timestamp;temperature;humidity
6824;DHT22;58633;49.470;11.004;2023-02-21T00:00:24;9.80;61.80
6824;DHT22;58633;49.470;11.004;2023-02-21T00:03:08;9.70;61.60
6824;DHT22;58633;49.470;11.004;2023-02-21T00:05:52;9.70;61.80
6824;DHT22;58633;49.470;11.004;2023-02-21T00:08:36;9.60;61.70
6824;DHT22;58633;49.470;11.004;2023-02-21T00:11:21;9.60;61.80
6824;DHT22;58633;49.470;11.004;2023-02-21T00:14:04;9.60;61.90
6824;DHT22;58633;49.470;11.004;2023-02-21T00:16:49;9.60;61.90
6824;DHT22;58633;49.470;11.004;2023-02-21T00:19:32;9.60;62.10
6824;DHT22;58633;49.470;11.004;2023-02-21T00:22:16;9.60;62.30
6824;DHT22;58633;49.470;11.004;2023-02-21T00:25:00;9.80;62.70
6824;DHT22;58633;49.470;11.004;2023-02-21T00:27:44;9.60;62.60
6824;DHT22;58633;49.470;11.004;2023-02-21T00:30:28;9.70;62.50
6824;DHT22;58633;49.470;11.004;2023-02-21T00:33:13;9.90;62.60
6824;DHT22;58633;49.470;11.004;2023-02-21T00:35:56;10.20;61.80
6824;DHT22;58633;49.470;11.004;2023-02-21T00:38:40;9.60;62.10
6824;DHT22;58633;49.470;11.004;2023-02-21T00:41:25;9.70;62.30
6824;DHT22;58633;49.470;11.004;2023-02-21T00:44:09;9.90;62.40
6824;DHT22;58633;49.470;11.004;2023-02-21T00:46:53;9.80;62.40
6824;DHT22;58633;49.470;11.004;2023-02-21T00:49:37;9.90;62.40
6824;DHT22;58633;49.470;11.004;2023-02-21T00:52:21;9.90;62.50
6824;DHT22;58633;49.470;11.004;2023-02-21T00:55:06;9.60;62.30
6824;DHT22;58633;49.470;11.004;2023-02-21T00:57:50;9.80;62.50
6824;DHT22;58633;49.470;11.004;2023-02-21T01:00:34;9.40;62.20
6824;DHT22;58633;49.470;11.004;2023-02-21T01:03:18;9.60;62.50
6824;DHT22;58633;49.470;11.004;2023-02-21T01:06:08;9.60;62.60
6824;DHT22;58633;49.470;11.004;2023-02-21T01:08:52;9.70;62.70
6824;DHT22;58633;49.470;11.004;2023-02-21T01:11:36;9.60;62.80
6824;DHT22;58633;49.470;11.004;2023-02-21T01:14:20;9.70;62.90
6824;DHT22;58633;49.470;11.004;2023-02-21T01:17:05;9.60;62.90
6824;DHT22;58633;49.470;11.004;2023-02-21T01:19:49;9.50;63.00
6824;DHT22;58633;49.470;11.004;2023-02-21T01:25:17;9.40;63.00
6824;DHT22;58633;49.470;11.004;2023-02-21T01:30:46;9.30;63.10
6824;DHT22;58633;49.470;11.004;2023-02-21T01:33:38;9.30;63.00
6824;DHT22;58633;49.470;11.004;2023-02-21T01:39:09;9.10;63.20
6824;DHT22;58633;49.470;11.004;2023-02-21T01:41:53;8.90;63.10
6824;DHT22;58633;49.470;11.004;2023-02-21T01:44:43;8.70;62.90
6824;DHT22;58633;49.470;11.004;2023-02-21T01:47:27;9.10;63.20
6824;DHT22;58633;49.470;11.004;2023-02-21T01:50:27;9.20;63.60
6824;DHT22;58633;49.470;11.004;2023-02-21T01:53:23;9.20;63.50
6824;DHT22;58633;49.470;11.004;2023-02-21T01:56:09;9.50;63.90
6824;DHT22;58633;49.470;11.004;2023-02-21T01:58:55;8.90;63.40
6824;DHT22;58633;49.470;11.004;2023-02-21T02:04:40;9.00;63.80
6824;DHT22;58633;49.470;11.004;2023-02-21T02:10:09;9.00;63.90
6824;DHT22;58633;49.470;11.004;2023-02-21T02:16:31;9.10;64.00
6824;DHT22;58633;49.470;11.004;2023-02-21T02:21:32;8.80;64.10
6824;DHT22;58633;49.470;11.004;2023-02-21T02:30:16;8.70;64.20
6824;DHT22;58633;49.470;11.004;2023-02-21T02:33:07;8.60;64.30
6824;DHT22;58633;49.470;11.004;2023-02-21T02:36:11;8.80;64.60
6824;DHT22;58633;49.470;11.004;2023-02-21T02:41:32;8.10;64.10
6824;DHT22;58633;49.470;11.004;2023-02-21T02:44:27;8.30;64.50
6824;DHT22;58633;49.470;11.004;2023-02-21T02:46:55;8.40;64.60
6824;DHT22;58633;49.470;11.004;2023-02-21T02:49:25;8.50;64.70
6824;DHT22;58633;49.470;11.004;2023-02-21T02:51:52;8.30;64.70
6824;DHT22;58633;49.470;11.004;2023-02-21T02:54:17;8.20;64.90
6824;DHT22;58633;49.470;11.004;2023-02-21T02:56:44;8.60;65.20
6824;DHT22;58633;49.470;11.004;2023-02-21T02:59:18;8.50;65.30
6824;DHT22;58633;49.470;11.004;2023-02-21T03:09:28;8.60;65.70
6824;DHT22;58633;49.470;11.004;2023-02-21T03:14:51;8.40;65.00
6824;DHT22;58633;49.470;11.004;2023-02-21T03:17:22;8.30;64.90
6824;DHT22;58633;49.470;11.004;2023-02-21T03:19:50;7.90;64.70
6824;DHT22;58633;49.470;11.004;2023-02-21T03:22:20;8.50;65.50
6824;DHT22;58633;49.470;11.004;2023-02-21T03:24:48;8.10;65.20
6824;DHT22;58633;49.470;11.004;2023-02-21T03:27:16;8.10;65.20
6824;DHT22;58633;49.470;11.004;2023-02-21T03:29:42;7.70;65.00
6824;DHT22;58633;49.470;11.004;2023-02-21T03:34:42;8.40;66.10
6824;DHT22;58633;49.470;11.004;2023-02-21T03:37:10;8.10;65.60
6824;DHT22;58633;49.470;11.004;2023-02-21T03:39:42;8.20;65.40
6824;DHT22;58633;49.470;11.004;2023-02-21T03:44:34;8.20;65.50
6824;DHT22;58633;49.470;11.004;2023-02-21T03:46:59;8.70;65.90
6824;DHT22;58633;49.470;11.004;2023-02-21T03:49:25;8.40;65.60
6824;DHT22;58633;49.470;11.004;2023-02-21T03:54:16;8.30;65.50
6824;DHT22;58633;49.470;11.004;2023-02-21T04:04:00;8.30;65.60
6824;DHT22;58633;49.470;11.004;2023-02-21T04:06:25;8.50;65.50
6824;DHT22;58633;49.470;11.004;2023-02-21T04:11:21;8.30;65.50
6824;DHT22;58633;49.470;11.004;2023-02-21T04:18:38;8.20;65.70
6824;DHT22;58633;49.470;11.004;2023-02-21T04:21:04;8.50;65.90
6824;DHT22;58633;49.470;11.004;2023-02-21T04:23:30;8.80;66.10
6824;DHT22;58633;49.470;11.004;2023-02-21T04:25:55;8.20;65.60
6824;DHT22;58633;49.470;11.004;2023-02-21T04:28:21;8.20;65.60
6824;DHT22;58633;49.470;11.004;2023-02-21T04:33:14;8.50;66.00
6824;DHT22;58633;49.470;11.004;2023-02-21T04:35:39;8.50;66.10
6824;DHT22;58633;49.470;11.004;2023-02-21T04:38:05;8.50;66.00
6824;DHT22;58633;49.470;11.004;2023-02-21T04:40:30;8.40;65.80
6824;DHT22;58633;49.470;11.004;2023-02-21T04:42:55;8.90;66.20
6824;DHT22;58633;49.470;11.004;2023-02-21T04:45:21;8.80;66.00
6824;DHT22;58633;49.470;11.004;2023-02-21T04:47:47;8.60;65.70
6824;DHT22;58633;49.470;11.004;2023-02-21T04:50:13;8.70;65.70
6824;DHT22;58633;49.470;11.004;2023-02-21T04:52:38;8.60;65.70
6824;DHT22;58633;49.470;11.004;2023-02-21T04:57:31;8.80;65.90
6824;DHT22;58633;49.470;11.004;2023-02-21T04:59:58;8.80;65.80
6824;DHT22;58633;49.470;11.004;2023-02-21T05:02:24;8.20;65.40
6824;DHT22;58633;49.470;11.004;2023-02-21T05:04:49;8.60;65.70
6824;DHT22;58633;49.470;11.004;2023-02-21T05:09:41;9.10;66.20
6824;DHT22;58633;49.470;11.004;2023-02-21T05:12:06;8.80;65.80
6824;DHT22;58633;49.470;11.004;2023-02-21T05:14:39;8.80;65.80
6824;DHT22;58633;49.470;11.004;2023-02-21T05:22:00;8.90;65.70
6824;DHT22;58633;49.470;11.004;2023-02-21T05:24:27;8.90;65.60
6824;DHT22;58633;49.470;11.004;2023-02-21T05:26:53;8.90;65.70
6824;DHT22;58633;49.470;11.004;2023-02-21T05:31:45;9.00;65.70
6824;DHT22;58633;49.470;11.004;2023-02-21T05:34:12;9.00;65.60
6824;DHT22;58633;49.470;11.004;2023-02-21T05:36:38;9.00;65.60
6824;DHT22;58633;49.470;11.004;2023-02-21T05:39:05;9.00;65.50
6824;DHT22;58633;49.470;11.004;2023-02-21T05:41:31;9.00;65.50
6824;DHT22;58633;49.470;11.004;2023-02-21T05:43:57;9.10;65.50
6824;DHT22;58633;49.470;11.004;2023-02-21T05:46:28;9.00;65.50
6824;DHT22;58633;49.470;11.004;2023-02-21T05:48:55;9.10;65.50
6824;DHT22;58633;49.470;11.004;2023-02-21T05:51:21;9.10;65.60
6824;DHT22;58633;49.470;11.004;2023-02-21T05:56:13;8.90;65.40
6824;DHT22;58633;49.470;11.004;2023-02-21T05:58:39;9.00;65.70
6824;DHT22;58633;49.470;11.004;2023-02-21T06:03:31;9.10;65.70
6824;DHT22;58633;49.470;11.004;2023-02-21T06:05:57;9.10;65.70
6824;DHT22;58633;49.470;11.004;2023-02-21T06:08:22;8.80;65.60
6824;DHT22;58633;49.470;11.004;2023-02-21T06:13:14;8.90;66.00
6824;DHT22;58633;49.470;11.004;2023-02-21T06:15:39;9.00;66.10
6824;DHT22;58633;49.470;11.004;2023-02-21T06:18:05;8.90;66.00
6824;DHT22;58633;49.470;11.004;2023-02-21T06:20:30;8.90;65.90
6824;DHT22;58633;49.470;11.004;2023-02-21T06:27:48;9.20;66.30
6824;DHT22;58633;49.470;11.004;2023-02-21T06:32:41;9.60;66.60
6824;DHT22;58633;49.470;11.004;2023-02-21T06:37:33;8.80;65.90
6824;DHT22;58633;49.470;11.004;2023-02-21T06:39:58;9.30;66.20
6824;DHT22;58633;49.470;11.004;2023-02-21T06:42:24;9.20;66.00
6824;DHT22;58633;49.470;11.004;2023-02-21T06:44:49;9.50;66.20
6824;DHT22;58633;49.470;11.004;2023-02-21T06:47:15;9.40;66.30
6824;DHT22;58633;49.470;11.004;2023-02-21T06:49:42;9.80;66.00
6824;DHT22;58633;49.470;11.004;2023-02-21T06:52:08;9.50;65.40
6824;DHT22;58633;49.470;11.004;2023-02-21T06:54:34;9.50;65.50
6824;DHT22;58633;49.470;11.004;2023-02-21T06:56:59;9.40;65.60
6824;DHT22;58633;49.470;11.004;2023-02-21T06:59:27;9.30;65.60
6824;DHT22;58633;49.470;11.004;2023-02-21T07:01:53;9.40;65.60
6824;DHT22;58633;49.470;11.004;2023-02-21T07:04:18;9.10;65.50
6824;DHT22;58633;49.470;11.004;2023-02-21T07:06:44;9.30;65.70
6824;DHT22;58633;49.470;11.004;2023-02-21T07:09:09;9.40;65.70
6824;DHT22;58633;49.470;11.004;2023-02-21T07:14:01;9.30;65.90
6824;DHT22;58633;49.470;11.004;2023-02-21T07:16:27;9.50;66.00
6824;DHT22;58633;49.470;11.004;2023-02-21T07:18:53;9.30;65.80
6824;DHT22;58633;49.470;11.004;2023-02-21T07:21:19;9.30;65.80
6824;DHT22;58633;49.470;11.004;2023-02-21T07:23:46;9.40;65.80
6824;DHT22;58633;49.470;11.004;2023-02-21T07:26:13;9.30;65.60
6824;DHT22;58633;49.470;11.004;2023-02-21T07:28:40;9.40;65.90
6824;DHT22;58633;49.470;11.004;2023-02-21T07:31:06;9.50;65.90
6824;DHT22;58633;49.470;11.004;2023-02-21T07:38:28;9.30;65.50
6824;DHT22;58633;49.470;11.004;2023-02-21T07:40:55;9.20;65.70
6824;DHT22;58633;49.470;11.004;2023-02-21T07:43:20;9.20;65.90
6824;DHT22;58633;49.470;11.004;2023-02-21T07:50:40;9.40;66.60
6824;DHT22;58633;49.470;11.004;2023-02-21T08:00:24;8.90;66.30
6824;DHT22;58633;49.470;11.004;2023-02-21T08:02:50;9.20;66.50
6824;DHT22;58633;49.470;11.004;2023-02-21T08:05:17;9.90;67.10
6824;DHT22;58633;49.470;11.004;2023-02-21T08:07:43;9.20;66.40
6824;DHT22;58633;49.470;11.004;2023-02-21T08:10:09;9.00;66.10
6824;DHT22;58633;49.470;11.004;2023-02-21T08:12:35;9.50;66.50
6824;DHT22;58633;49.470;11.004;2023-02-21T08:15:00;9.50;66.40
6824;DHT22;58633;49.470;11.004;2023-02-21T08:19:52;9.60;66.30
6824;DHT22;58633;49.470;11.004;2023-02-21T08:22:18;9.70;66.30
6824;DHT22;58633;49.470;11.004;2023-02-21T08:27:10;9.80;66.10
6824;DHT22;58633;49.470;11.004;2023-02-21T08:32:02;9.80;65.60
6824;DHT22;58633;49.470;11.004;2023-02-21T08:34:28;10.10;64.60
6824;DHT22;58633;49.470;11.004;2023-02-21T08:36:54;10.20;64.60
6824;DHT22;58633;49.470;11.004;2023-02-21T08:39:19;10.30;64.50
6824;DHT22;58633;49.470;11.004;2023-02-21T08:41:46;10.50;64.50
6824;DHT22;58633;49.470;11.004;2023-02-21T08:44:16;10.70;64.10
6824;DHT22;58633;49.470;11.004;2023-02-21T08:46:42;10.90;64.00
6824;DHT22;58633;49.470;11.004;2023-02-21T08:49:08;10.80;63.70
6824;DHT22;58633;49.470;11.004;2023-02-21T08:51:34;10.90;63.30
6824;DHT22;58633;49.470;11.004;2023-02-21T08:54:00;11.10;63.30
6824;DHT22;58633;49.470;11.004;2023-02-21T08:56:27;11.00;62.90
6824;DHT22;58633;49.470;11.004;2023-02-21T08:58:53;11.20;63.20
6824;DHT22;58633;49.470;11.004;2023-02-21T09:01:22;11.20;63.60
6824;DHT22;58633;49.470;11.004;2023-02-21T09:06:15;11.90;63.30
6824;DHT22;58633;49.470;11.004;2023-02-21T09:11:07;12.00;62.60
6824;DHT22;58633;49.470;11.004;2023-02-21T09:13:33;11.90;62.40
6824;DHT22;58633;49.470;11.004;2023-02-21T09:16:01;11.80;62.50
6824;DHT22;58633;49.470;11.004;2023-02-21T09:18:28;11.90;62.60
6824;DHT22;58633;49.470;11.004;2023-02-21T09:20:55;12.10;62.60
6824;DHT22;58633;49.470;11.004;2023-02-21T09:23:23;12.30;62.90
6824;DHT22;58633;49.470;11.004;2023-02-21T09:25:49;12.30;62.50
6824;DHT22;58633;49.470;11.004;2023-02-21T09:28:16;12.50;62.40
6824;DHT22;58633;49.470;11.004;2023-02-21T09:30:42;12.60;62.30
6824;DHT22;58633;49.470;11.004;2023-02-21T09:33:08;12.80;62.20
6824;DHT22;58633;49.470;11.004;2023-02-21T09:35:34;12.80;61.80
6824;DHT22;58633;49.470;11.004;2023-02-21T09:38:01;12.90;61.60
6824;DHT22;58633;49.470;11.004;2023-02-21T09:40:35;13.00;61.90
6824;DHT22;58633;49.470;11.004;2023-02-21T09:43:02;13.30;61.90
6824;DHT22;58633;49.470;11.004;2023-02-21T09:45:32;13.20;61.60
6824;DHT22;58633;49.470;11.004;2023-02-21T09:48:00;13.30;61.70
6824;DHT22;58633;49.470;11.004;2023-02-21T09:50:28;13.40;61.50
6824;DHT22;58633;49.470;11.004;2023-02-21T09:52:58;13.60;61.30
6824;DHT22;58633;49.470;11.004;2023-02-21T09:55:42;13.80;61.40
6824;DHT22;58633;49.470;11.004;2023-02-21T09:58:14;13.60;61.10
6824;DHT22;58633;49.470;11.004;2023-02-21T10:00:40;13.50;60.90
6824;DHT22;58633;49.470;11.004;2023-02-21T10:03:14;13.50;60.90
6824;DHT22;58633;49.470;11.004;2023-02-21T10:05:51;13.60;60.80
6824;DHT22;58633;49.470;11.004;2023-02-21T10:09:07;13.40;60.60
6824;DHT22;58633;49.470;11.004;2023-02-21T10:11:30;13.10;60.70
6824;DHT22;58633;49.470;11.004;2023-02-21T10:16:52;13.20;61.20
6824;DHT22;58633;49.470;11.004;2023-02-21T10:19:32;13.20;61.40
6824;DHT22;58633;49.470;11.004;2023-02-21T10:22:08;10.50;58.90
6824;DHT22;58633;49.470;11.004;2023-02-21T10:24:35;13.50;61.70
6824;DHT22;58633;49.470;11.004;2023-02-21T10:27:04;13.60;61.50
6824;DHT22;58633;49.470;11.004;2023-02-21T10:29:34;13.70;61.30
6824;DHT22;58633;49.470;11.004;2023-02-21T10:32:02;13.70;61.00
6824;DHT22;58633;49.470;11.004;2023-02-21T10:34:30;13.70;60.90
6824;DHT22;58633;49.470;11.004;2023-02-21T10:39:54;13.80;60.50
6824;DHT22;58633;49.470;11.004;2023-02-21T10:42:42;13.80;61.00
6824;DHT22;58633;49.470;11.004;2023-02-21T10:45:10;13.90;60.80
6824;DHT22;58633;49.470;11.004;2023-02-21T10:47:54;13.90;60.80
6824;DHT22;58633;49.470;11.004;2023-02-21T10:50:44;14.00;60.90
6824;DHT22;58633;49.470;11.004;2023-02-21T10:53:26;14.00;60.80
6824;DHT22;58633;49.470;11.004;2023-02-21T10:58:55;14.00;60.40
6824;DHT22;58633;49.470;11.004;2023-02-21T11:03:53;14.50;60.10
6824;DHT22;58633;49.470;11.004;2023-02-21T11:06:33;14.40;60.20
6824;DHT22;58633;49.470;11.004;2023-02-21T11:09:00;14.80;60.70
6824;DHT22;58633;49.470;11.004;2023-02-21T11:11:37;14.80;60.10
6824;DHT22;58633;49.470;11.004;2023-02-21T11:16:43;14.90;60.20
6824;DHT22;58633;49.470;11.004;2023-02-21T11:19:12;14.40;59.60
6824;DHT22;58633;49.470;11.004;2023-02-21T11:21:40;14.70;60.20
6824;DHT22;58633;49.470;11.004;2023-02-21T11:24:06;14.20;60.20
6824;DHT22;58633;49.470;11.004;2023-02-21T11:26:52;14.20;60.40
6824;DHT22;58633;49.470;11.004;2023-02-21T11:29:22;14.10;60.50
6824;DHT22;58633;49.470;11.004;2023-02-21T11:31:50;14.10;60.80
6824;DHT22;58633;49.470;11.004;2023-02-21T11:34:17;14.20;60.90
6824;DHT22;58633;49.470;11.004;2023-02-21T11:36:45;14.40;61.20
6824;DHT22;58633;49.470;11.004;2023-02-21T11:39:18;14.20;60.90
6824;DHT22;58633;49.470;11.004;2023-02-21T11:41:52;14.20;60.90
6824;DHT22;58633;49.470;11.004;2023-02-21T11:44:36;14.20;60.70
6824;DHT22;58633;49.470;11.004;2023-02-21T11:52:43;14.30;60.70
6824;DHT22;58633;49.470;11.004;2023-02-21T11:55:19;14.60;60.10
6824;DHT22;58633;49.470;11.004;2023-02-21T12:03:39;14.90;61.20
6824;DHT22;58633;49.470;11.004;2023-02-21T12:09:18;15.90;60.70
6824;DHT22;58633;49.470;11.004;2023-02-21T12:11:49;16.20;60.90
6824;DHT22;58633;49.470;11.004;2023-02-21T12:14:39;16.50;59.60
6824;DHT22;58633;49.470;11.004;2023-02-21T12:17:24;16.40;59.30
6824;DHT22;58633;49.470;11.004;2023-02-21T12:28:18;17.80;57.60
6824;DHT22;58633;49.470;11.004;2023-02-21T12:31:11;17.80;57.20
6824;DHT22;58633;49.470;11.004;2023-02-21T12:34:12;17.70;57.10
6824;DHT22;58633;49.470;11.004;2023-02-21T12:37:19;17.90;57.40
6824;DHT22;58633;49.470;11.004;2023-02-21T12:45:46;18.10;56.40
6824;DHT22;58633;49.470;11.004;2023-02-21T12:50:52;18.20;57.00
6824;DHT22;58633;49.470;11.004;2023-02-21T12:56:09;19.00;56.10
6824;DHT22;58633;49.470;11.004;2023-02-21T12:58:41;19.30;55.80
6824;DHT22;58633;49.470;11.004;2023-02-21T13:01:20;19.30;55.80
6824;DHT22;58633;49.470;11.004;2023-02-21T13:06:35;19.50;54.90
6824;DHT22;58633;49.470;11.004;2023-02-21T13:09:29;19.30;54.40
6824;DHT22;58633;49.470;11.004;2023-02-21T13:12:17;19.20;54.90
6824;DHT22;58633;49.470;11.004;2023-02-21T13:15:26;19.20;55.20
6824;DHT22;58633;49.470;11.004;2023-02-21T13:18:14;18.10;54.70
6824;DHT22;58633;49.470;11.004;2023-02-21T13:20:39;17.80;55.40
6824;DHT22;58633;49.470;11.004;2023-02-21T13:26:45;17.00;56.40
6824;DHT22;58633;49.470;11.004;2023-02-21T13:29:32;17.00;57.00
6824;DHT22;58633;49.470;11.004;2023-02-21T13:34:37;17.10;57.00
6824;DHT22;58633;49.470;11.004;2023-02-21T13:37:25;16.90;57.00
6824;DHT22;58633;49.470;11.004;2023-02-21T13:39:54;16.70;57.00
6824;DHT22;58633;49.470;11.004;2023-02-21T13:42:25;16.70;57.40
6824;DHT22;58633;49.470;11.004;2023-02-21T13:45:06;16.60;57.60
6824;DHT22;58633;49.470;11.004;2023-02-21T13:50:48;16.90;57.80
6824;DHT22;58633;49.470;11.004;2023-02-21T13:58:42;17.00;57.50
6824;DHT22;58633;49.470;11.004;2023-02-21T14:03:52;17.10;57.30
6824;DHT22;58633;49.470;11.004;2023-02-21T14:06:29;17.20;57.60
6824;DHT22;58633;49.470;11.004;2023-02-21T14:09:02;17.00;57.50
6824;DHT22;58633;49.470;11.004;2023-02-21T14:11:36;17.00;57.80
6824;DHT22;58633;49.470;11.004;2023-02-21T14:14:21;16.90;57.70
6824;DHT22;58633;49.470;11.004;2023-02-21T14:16:52;17.50;58.20
6824;DHT22;58633;49.470;11.004;2023-02-21T14:19:26;17.40;57.90
6824;DHT22;58633;49.470;11.004;2023-02-21T14:22:03;17.40;57.80
6824;DHT22;58633;49.470;11.004;2023-02-21T14:24:33;18.10;57.60
6824;DHT22;58633;49.470;11.004;2023-02-21T14:29:34;19.30;56.50
6824;DHT22;58633;49.470;11.004;2023-02-21T14:39:43;21.60;53.80
6824;DHT22;58633;49.470;11.004;2023-02-21T14:42:34;21.90;52.00
6824;DHT22;58633;49.470;11.004;2023-02-21T14:48:04;22.20;51.80
6824;DHT22;58633;49.470;11.004;2023-02-21T14:54:00;21.00;52.40
6824;DHT22;58633;49.470;11.004;2023-02-21T14:59:29;21.60;52.90
6824;DHT22;58633;49.470;11.004;2023-02-21T15:05:01;21.80;51.90
6824;DHT22;58633;49.470;11.004;2023-02-21T15:10:26;22.50;51.90
6824;DHT22;58633;49.470;11.004;2023-02-21T15:12:59;22.60;50.90
6824;DHT22;58633;49.470;11.004;2023-02-21T15:15:37;22.60;51.40
6824;DHT22;58633;49.470;11.004;2023-02-21T15:18:07;22.90;51.20
6824;DHT22;58633;49.470;11.004;2023-02-21T15:20:38;23.00;50.90
6824;DHT22;58633;49.470;11.004;2023-02-21T15:23:14;23.10;50.90
6824;DHT22;58633;49.470;11.004;2023-02-21T15:25:42;23.40;50.60
6824;DHT22;58633;49.470;11.004;2023-02-21T15:28:25;23.40;50.80
6824;DHT22;58633;49.470;11.004;2023-02-21T15:31:10;23.50;49.70
6824;DHT22;58633;49.470;11.004;2023-02-21T15:33:39;23.80;49.80
6824;DHT22;58633;49.470;11.004;2023-02-21T15:36:06;23.60;49.40
6824;DHT22;58633;49.470;11.004;2023-02-21T15:38:42;23.50;49.40
6824;DHT22;58633;49.470;11.004;2023-02-21T15:41:28;23.50;49.30
6824;DHT22;58633;49.470;11.004;2023-02-21T15:44:14;23.50;49.10
6824;DHT22;58633;49.470;11.004;2023-02-21T15:46:45;23.40;49.30
6824;DHT22;58633;49.470;11.004;2023-02-21T15:49:25;22.70;49.30
6824;DHT22;58633;49.470;11.004;2023-02-21T15:51:51;22.40;49.90
6824;DHT22;58633;49.470;11.004;2023-02-21T15:59:17;21.70;50.60
6824;DHT22;58633;49.470;11.004;2023-02-21T16:01:43;21.80;50.70
6824;DHT22;58633;49.470;11.004;2023-02-21T16:04:22;21.50;50.60
6824;DHT22;58633;49.470;11.004;2023-02-21T16:06:55;21.20;50.60
6824;DHT22;58633;49.470;11.004;2023-02-21T16:09:29;21.20;51.10
6824;DHT22;58633;49.470;11.004;2023-02-21T16:11:59;20.70;51.40
6824;DHT22;58633;49.470;11.004;2023-02-21T16:19:40;19.90;52.50
6824;DHT22;58633;49.470;11.004;2023-02-21T16:22:24;19.60;52.80
6824;DHT22;58633;49.470;11.004;2023-02-21T16:25:11;19.20;52.90
6824;DHT22;58633;49.470;11.004;2023-02-21T16:28:12;19.20;53.40
6824;DHT22;58633;49.470;11.004;2023-02-21T16:30:32;19.10;53.90
6824;DHT22;58633;49.470;11.004;2023-02-21T16:33:02;18.40;53.80
6824;DHT22;58633;49.470;11.004;2023-02-21T16:35:28;18.50;54.40
6824;DHT22;58633;49.470;11.004;2023-02-21T16:37:56;18.30;54.60
6824;DHT22;58633;49.470;11.004;2023-02-21T16:40:26;18.00;54.60
6824;DHT22;58633;49.470;11.004;2023-02-21T16:42:54;17.80;54.90
6824;DHT22;58633;49.470;11.004;2023-02-21T16:45:21;17.50;55.00
6824;DHT22;58633;49.470;11.004;2023-02-21T16:47:54;17.80;55.70
6824;DHT22;58633;49.470;11.004;2023-02-21T16:53:00;17.10;56.00
6824;DHT22;58633;49.470;11.004;2023-02-21T16:55:27;16.90;56.10
6824;DHT22;58633;49.470;11.004;2023-02-21T16:57:58;16.80;56.30
6824;DHT22;58633;49.470;11.004;2023-02-21T17:02:51;16.40;56.50
6824;DHT22;58633;49.470;11.004;2023-02-21T17:05:19;16.40;56.90
6824;DHT22;58633;49.470;11.004;2023-02-21T17:07:49;16.30;57.20
6824;DHT22;58633;49.470;11.004;2023-02-21T17:10:18;16.20;57.50
6824;DHT22;58633;49.470;11.004;2023-02-21T17:12:44;16.00;57.80
6824;DHT22;58633;49.470;11.004;2023-02-21T17:15:10;15.70;57.70
6824;DHT22;58633;49.470;11.004;2023-02-21T17:17:39;15.90;58.10
6824;DHT22;58633;49.470;11.004;2023-02-21T17:20:06;15.70;58.20
6824;DHT22;58633;49.470;11.004;2023-02-21T17:22:32;15.60;58.20
6824;DHT22;58633;49.470;11.004;2023-02-21T17:27:24;15.60;58.60
6824;DHT22;58633;49.470;11.004;2023-02-21T17:32:16;15.40;58.70
6824;DHT22;58633;49.470;11.004;2023-02-21T17:39:35;15.20;59.50
6824;DHT22;58633;49.470;11.004;2023-02-21T17:44:27;15.00;59.60
6824;DHT22;58633;49.470;11.004;2023-02-21T17:46:54;14.90;59.80
6824;DHT22;58633;49.470;11.004;2023-02-21T17:49:26;14.80;59.90
6824;DHT22;58633;49.470;11.004;2023-02-21T17:51:53;15.00;60.40
6824;DHT22;58633;49.470;11.004;2023-02-21T17:54:22;15.00;60.60
6824;DHT22;58633;49.470;11.004;2023-02-21T17:59:15;14.80;60.40
6824;DHT22;58633;49.470;11.004;2023-02-21T18:04:08;14.70;60.50
6824;DHT22;58633;49.470;11.004;2023-02-21T18:06:34;14.50;60.40
6824;DHT22;58633;49.470;11.004;2023-02-21T18:11:27;14.10;60.90
6824;DHT22;58633;49.470;11.004;2023-02-21T18:13:55;14.20;61.40
6824;DHT22;58633;49.470;11.004;2023-02-21T18:16:20;14.10;61.50
6824;DHT22;58633;49.470;11.004;2023-02-21T18:18:46;14.30;61.40
6824;DHT22;58633;49.470;11.004;2023-02-21T18:21:12;14.00;61.30
6824;DHT22;58633;49.470;11.004;2023-02-21T18:23:42;14.10;61.50
6824;DHT22;58633;49.470;11.004;2023-02-21T18:26:08;13.90;61.60
6824;DHT22;58633;49.470;11.004;2023-02-21T18:35:56;13.60;62.40
6824;DHT22;58633;49.470;11.004;2023-02-21T18:38:22;13.60;62.50
6824;DHT22;58633;49.470;11.004;2023-02-21T18:40:49;13.30;62.30
6824;DHT22;58633;49.470;11.004;2023-02-21T18:43:21;13.60;62.80
6824;DHT22;58633;49.470;11.004;2023-02-21T18:45:48;13.60;62.80
6824;DHT22;58633;49.470;11.004;2023-02-21T18:57:59;13.40;63.20
6824;DHT22;58633;49.470;11.004;2023-02-21T19:00:25;13.60;63.50
6824;DHT22;58633;49.470;11.004;2023-02-21T19:05:19;13.10;63.00
6824;DHT22;58633;49.470;11.004;2023-02-21T19:07:45;13.20;63.40
6824;DHT22;58633;49.470;11.004;2023-02-21T19:10:13;12.90;63.50
6824;DHT22;58633;49.470;11.004;2023-02-21T19:12:38;13.00;64.10
6824;DHT22;58633;49.470;11.004;2023-02-21T19:15:04;13.10;64.10
6824;DHT22;58633;49.470;11.004;2023-02-21T19:17:30;12.80;63.70
6824;DHT22;58633;49.470;11.004;2023-02-21T19:19:56;12.80;63.90
6824;DHT22;58633;49.470;11.004;2023-02-21T19:22:21;12.80;64.00
6824;DHT22;58633;49.470;11.004;2023-02-21T19:24:47;12.80;64.50
6824;DHT22;58633;49.470;11.004;2023-02-21T19:27:12;12.50;64.30
6824;DHT22;58633;49.470;11.004;2023-02-21T19:32:06;12.40;64.60
6824;DHT22;58633;49.470;11.004;2023-02-21T19:34:32;12.80;65.00
6824;DHT22;58633;49.470;11.004;2023-02-21T19:36:58;12.40;64.50
6824;DHT22;58633;49.470;11.004;2023-02-21T19:39:24;12.30;64.80
6824;DHT22;58633;49.470;11.004;2023-02-21T19:44:15;12.20;65.10
6824;DHT22;58633;49.470;11.004;2023-02-21T19:49:09;12.20;65.30
6824;DHT22;58633;49.470;11.004;2023-02-21T19:51:43;12.00;65.50
6824;DHT22;58633;49.470;11.004;2023-02-21T19:54:13;12.20;65.50
6824;DHT22;58633;49.470;11.004;2023-02-21T19:56:39;12.20;65.70
6824;DHT22;58633;49.470;11.004;2023-02-21T19:59:05;12.00;65.50
6824;DHT22;58633;49.470;11.004;2023-02-21T20:01:31;12.00;65.60
6824;DHT22;58633;49.470;11.004;2023-02-21T20:03:58;12.00;65.70
6824;DHT22;58633;49.470;11.004;2023-02-21T20:06:24;12.30;66.20
6824;DHT22;58633;49.470;11.004;2023-02-21T20:08:53;12.10;66.20
6824;DHT22;58633;49.470;11.004;2023-02-21T20:11:19;11.90;66.10
6824;DHT22;58633;49.470;11.004;2023-02-21T20:13:45;14.00;68.80
6824;DHT22;58633;49.470;11.004;2023-02-21T20:16:11;11.80;66.50
6824;DHT22;58633;49.470;11.004;2023-02-21T20:18:41;11.70;66.20
6824;DHT22;58633;49.470;11.004;2023-02-21T20:21:07;11.80;66.30
6824;DHT22;58633;49.470;11.004;2023-02-21T20:23:33;11.60;66.20
6824;DHT22;58633;49.470;11.004;2023-02-21T20:30:50;11.30;66.00
6824;DHT22;58633;49.470;11.004;2023-02-21T20:33:16;13.40;68.80
6824;DHT22;58633;49.470;11.004;2023-02-21T20:35:45;11.50;66.60
6824;DHT22;58633;49.470;11.004;2023-02-21T20:38:11;11.40;66.70
6824;DHT22;58633;49.470;11.004;2023-02-21T20:40:37;11.30;66.90
6824;DHT22;58633;49.470;11.004;2023-02-21T20:45:29;11.40;67.00
6824;DHT22;58633;49.470;11.004;2023-02-21T20:47:54;11.40;67.60
6824;DHT22;58633;49.470;11.004;2023-02-21T20:50:21;11.40;67.10
6824;DHT22;58633;49.470;11.004;2023-02-21T20:52:49;11.30;66.90